XIY weather

Xi'an Xianyang International Airport
Xi'an, Shaanxi Province, China

Public forecast

Using degrees Celsius for public forecast. Weather courtesy of forecast.io.

Current aviation weather report (METAR) for Xi'an Xianyang International Airport

Retrieved 2019/10/14 14:00 UTC (7 minutes ago):

ZLXY 141400Z 05006MPS CAVOK 11/08 Q1031 NOSIG

Aviation forecast (TAF) for Xi'an Xianyang International Airport

Retrieved 2019/10/14 12:00 UTC (2 hours ago):

TAF ZLXY 140903Z 1412/1512 06005G10MPS 3000 BR NSC TX14/1508Z TN09/1422Z BECMG 1422/1423 2800 -RA BR BECMG 1423/1424 3000 TEMPO 1503/1506 RA